sensor_id;sensor_type;location;lat;lon;timestamp;temperature;humidity
5466;DHT22;2755;50.728;7.108;2023-03-31T00:02:17;11.60;92.80
5466;DHT22;2755;50.728;7.108;2023-03-31T00:04:46;11.50;94.50
5466;DHT22;2755;50.728;7.108;2023-03-31T00:07:18;11.30;94.60
5466;DHT22;2755;50.728;7.108;2023-03-31T00:09:47;10.90;95.00
5466;DHT22;2755;50.728;7.108;2023-03-31T00:12:14;10.90;93.60
5466;DHT22;2755;50.728;7.108;2023-03-31T00:14:40;10.40;95.00
5466;DHT22;2755;50.728;7.108;2023-03-31T00:17:07;11.10;96.00
5466;DHT22;2755;50.728;7.108;2023-03-31T00:19:33;10.80;94.80
5466;DHT22;2755;50.728;7.108;2023-03-31T00:27:03;10.70;95.80
5466;DHT22;2755;50.728;7.108;2023-03-31T00:34:24;10.70;95.20
5466;DHT22;2755;50.728;7.108;2023-03-31T00:36:50;10.10;96.70
5466;DHT22;2755;50.728;7.108;2023-03-31T00:39:17;11.30;97.50
5466;DHT22;2755;50.728;7.108;2023-03-31T00:41:43;11.30;95.50
5466;DHT22;2755;50.728;7.108;2023-03-31T00:44:15;12.30;96.30
5466;DHT22;2755;50.728;7.108;2023-03-31T00:51:54;10.70;96.20
5466;DHT22;2755;50.728;7.108;2023-03-31T00:54:22;11.10;98.60
5466;DHT22;2755;50.728;7.108;2023-03-31T00:56:52;11.10;98.30
5466;DHT22;2755;50.728;7.108;2023-03-31T00:59:20;10.70;99.00
5466;DHT22;2755;50.728;7.108;2023-03-31T01:01:49;10.90;98.00
5466;DHT22;2755;50.728;7.108;2023-03-31T01:07:40;10.80;98.90
5466;DHT22;2755;50.728;7.108;2023-03-31T01:09:43;10.80;97.60
5466;DHT22;2755;50.728;7.108;2023-03-31T01:12:12;10.50;97.80
5466;DHT22;2755;50.728;7.108;2023-03-31T01:14:40;10.80;98.60
5466;DHT22;2755;50.728;7.108;2023-03-31T01:28:12;11.00;97.40
5466;DHT22;2755;50.728;7.108;2023-03-31T01:47:45;11.20;95.40
5466;DHT22;2755;50.728;7.108;2023-03-31T01:50:38;11.30;94.70
5466;DHT22;2755;50.728;7.108;2023-03-31T01:58:22;11.50;93.50
5466;DHT22;2755;50.728;7.108;2023-03-31T02:00:57;11.50;93.00
5466;DHT22;2755;50.728;7.108;2023-03-31T02:03:32;11.50;93.20
5466;DHT22;2755;50.728;7.108;2023-03-31T02:06:08;11.40;93.60
5466;DHT22;2755;50.728;7.108;2023-03-31T02:08:41;11.40;93.60
5466;DHT22;2755;50.728;7.108;2023-03-31T02:11:08;11.20;95.90
5466;DHT22;2755;50.728;7.108;2023-03-31T02:13:35;10.90;97.70
5466;DHT22;2755;50.728;7.108;2023-03-31T02:16:07;11.30;97.00
5466;DHT22;2755;50.728;7.108;2023-03-31T02:18:36;10.90;99.10
5466;DHT22;2755;50.728;7.108;2023-03-31T02:21:03;11.10;97.80
5466;DHT22;2755;50.728;7.108;2023-03-31T02:23:30;10.70;98.70
5466;DHT22;2755;50.728;7.108;2023-03-31T02:26:04;10.60;99.70
5466;DHT22;2755;50.728;7.108;2023-03-31T02:28:32;10.80;99.90
5466;DHT22;2755;50.728;7.108;2023-03-31T02:33:42;10.90;99.90
5466;DHT22;2755;50.728;7.108;2023-03-31T02:36:07;10.40;99.90
5466;DHT22;2755;50.728;7.108;2023-03-31T02:38:38;10.50;99.90
5466;DHT22;2755;50.728;7.108;2023-03-31T02:41:08;10.70;99.90
5466;DHT22;2755;50.728;7.108;2023-03-31T02:48:28;10.50;99.90
5466;DHT22;2755;50.728;7.108;2023-03-31T03:02:03;10.50;99.90
5466;DHT22;2755;50.728;7.108;2023-03-31T03:09:59;10.70;99.90
5466;DHT22;2755;50.728;7.108;2023-03-31T03:18:01;11.30;99.90
5466;DHT22;2755;50.728;7.108;2023-03-31T03:20:29;10.60;99.50
5466;DHT22;2755;50.728;7.108;2023-03-31T03:27:50;10.90;99.60
5466;DHT22;2755;50.728;7.108;2023-03-31T03:30:17;11.00;99.90
5466;DHT22;2755;50.728;7.108;2023-03-31T03:32:43;11.20;99.90
5466;DHT22;2755;50.728;7.108;2023-03-31T03:35:10;10.90;98.60
5466;DHT22;2755;50.728;7.108;2023-03-31T03:37:36;11.10;96.50
5466;DHT22;2755;50.728;7.108;2023-03-31T03:40:02;10.90;95.50
5466;DHT22;2755;50.728;7.108;2023-03-31T03:42:30;11.10;95.60
5466;DHT22;2755;50.728;7.108;2023-03-31T03:44:56;10.70;97.50
5466;DHT22;2755;50.728;7.108;2023-03-31T03:47:21;10.90;95.90
5466;DHT22;2755;50.728;7.108;2023-03-31T03:54:40;11.10;94.50
5466;DHT22;2755;50.728;7.108;2023-03-31T03:57:06;10.80;94.00
5466;DHT22;2755;50.728;7.108;2023-03-31T03:59:32;10.80;93.80
5466;DHT22;2755;50.728;7.108;2023-03-31T04:01:57;11.20;94.30
5466;DHT22;2755;50.728;7.108;2023-03-31T04:04:23;10.90;91.50
5466;DHT22;2755;50.728;7.108;2023-03-31T04:06:49;10.50;91.20
5466;DHT22;2755;50.728;7.108;2023-03-31T04:18:58;10.80;89.50
5466;DHT22;2755;50.728;7.108;2023-03-31T04:21:28;10.60;90.70
5466;DHT22;2755;50.728;7.108;2023-03-31T04:23:55;10.90;92.60
5466;DHT22;2755;50.728;7.108;2023-03-31T04:26:27;10.30;93.40
5466;DHT22;2755;50.728;7.108;2023-03-31T04:29:06;10.50;94.60
5466;DHT22;2755;50.728;7.108;2023-03-31T04:31:32;10.90;96.80
5466;DHT22;2755;50.728;7.108;2023-03-31T04:33:58;10.50;99.10
5466;DHT22;2755;50.728;7.108;2023-03-31T04:36:27;10.70;98.80
5466;DHT22;2755;50.728;7.108;2023-03-31T04:38:53;11.00;99.30
5466;DHT22;2755;50.728;7.108;2023-03-31T04:41:22;10.00;98.40
5466;DHT22;2755;50.728;7.108;2023-03-31T04:43:48;9.70;97.60
5466;DHT22;2755;50.728;7.108;2023-03-31T04:46:14;10.60;97.30
5466;DHT22;2755;50.728;7.108;2023-03-31T04:48:40;10.70;96.80
5466;DHT22;2755;50.728;7.108;2023-03-31T04:51:06;10.50;96.20
5466;DHT22;2755;50.728;7.108;2023-03-31T04:53:33;10.40;96.20
5466;DHT22;2755;50.728;7.108;2023-03-31T04:55:58;10.50;97.80
5466;DHT22;2755;50.728;7.108;2023-03-31T04:58:24;10.90;95.90
5466;DHT22;2755;50.728;7.108;2023-03-31T05:00:51;9.80;96.80
5466;DHT22;2755;50.728;7.108;2023-03-31T05:03:16;10.70;94.40
5466;DHT22;2755;50.728;7.108;2023-03-31T05:05:42;10.40;94.90
5466;DHT22;2755;50.728;7.108;2023-03-31T05:10:33;10.40;93.80
5466;DHT22;2755;50.728;7.108;2023-03-31T05:15:25;10.70;92.00
5466;DHT22;2755;50.728;7.108;2023-03-31T05:17:52;10.80;91.70
5466;DHT22;2755;50.728;7.108;2023-03-31T05:20:18;10.70;90.70
5466;DHT22;2755;50.728;7.108;2023-03-31T05:22:44;10.70;90.00
5466;DHT22;2755;50.728;7.108;2023-03-31T05:25:12;10.80;91.10
5466;DHT22;2755;50.728;7.108;2023-03-31T05:27:46;10.60;89.60
5466;DHT22;2755;50.728;7.108;2023-03-31T05:30:13;11.30;86.20
5466;DHT22;2755;50.728;7.108;2023-03-31T05:32:39;10.70;82.70
5466;DHT22;2755;50.728;7.108;2023-03-31T05:35:05;10.70;80.60
5466;DHT22;2755;50.728;7.108;2023-03-31T05:37:30;10.90;82.00
5466;DHT22;2755;50.728;7.108;2023-03-31T05:42:22;10.90;75.80
5466;DHT22;2755;50.728;7.108;2023-03-31T05:44:47;11.00;79.70
5466;DHT22;2755;50.728;7.108;2023-03-31T05:47:14;11.70;80.40
5466;DHT22;2755;50.728;7.108;2023-03-31T05:49:39;11.10;77.10
5466;DHT22;2755;50.728;7.108;2023-03-31T05:52:06;10.80;75.70
5466;DHT22;2755;50.728;7.108;2023-03-31T05:54:32;11.10;74.40
5466;DHT22;2755;50.728;7.108;2023-03-31T05:56:58;11.00;77.00
5466;DHT22;2755;50.728;7.108;2023-03-31T05:59:24;11.20;78.20
5466;DHT22;2755;50.728;7.108;2023-03-31T06:01:49;11.10;80.20
5466;DHT22;2755;50.728;7.108;2023-03-31T06:04:15;10.70;77.40
5466;DHT22;2755;50.728;7.108;2023-03-31T06:09:08;10.60;76.10
5466;DHT22;2755;50.728;7.108;2023-03-31T06:11:36;10.70;71.60
5466;DHT22;2755;50.728;7.108;2023-03-31T06:14:02;10.60;71.20
5466;DHT22;2755;50.728;7.108;2023-03-31T06:16:28;10.90;72.10
5466;DHT22;2755;50.728;7.108;2023-03-31T06:18:53;11.00;71.70
5466;DHT22;2755;50.728;7.108;2023-03-31T06:21:20;10.90;70.50
5466;DHT22;2755;50.728;7.108;2023-03-31T06:23:46;10.70;70.40
5466;DHT22;2755;50.728;7.108;2023-03-31T06:26:14;10.90;70.60
5466;DHT22;2755;50.728;7.108;2023-03-31T06:28:42;10.70;73.40
5466;DHT22;2755;50.728;7.108;2023-03-31T06:33:37;10.90;68.60
5466;DHT22;2755;50.728;7.108;2023-03-31T06:36:05;10.90;73.10
5466;DHT22;2755;50.728;7.108;2023-03-31T06:38:35;11.10;69.10
5466;DHT22;2755;50.728;7.108;2023-03-31T06:41:01;10.90;71.00
5466;DHT22;2755;50.728;7.108;2023-03-31T06:43:26;10.90;74.30
5466;DHT22;2755;50.728;7.108;2023-03-31T06:45:53;11.30;73.10
5466;DHT22;2755;50.728;7.108;2023-03-31T06:48:19;10.90;71.70
5466;DHT22;2755;50.728;7.108;2023-03-31T06:50:44;11.00;74.10
5466;DHT22;2755;50.728;7.108;2023-03-31T06:55:37;11.20;74.70
5466;DHT22;2755;50.728;7.108;2023-03-31T07:00:29;11.70;70.80
5466;DHT22;2755;50.728;7.108;2023-03-31T07:02:55;11.50;73.50
5466;DHT22;2755;50.728;7.108;2023-03-31T07:05:21;11.40;70.50
5466;DHT22;2755;50.728;7.108;2023-03-31T07:07:56;11.30;70.00
5466;DHT22;2755;50.728;7.108;2023-03-31T07:12:48;11.80;67.90
5466;DHT22;2755;50.728;7.108;2023-03-31T07:15:15;12.20;66.40
5466;DHT22;2755;50.728;7.108;2023-03-31T07:20:17;12.80;58.60
5466;DHT22;2755;50.728;7.108;2023-03-31T07:22:47;13.20;58.20
5466;DHT22;2755;50.728;7.108;2023-03-31T07:25:15;13.10;52.60
5466;DHT22;2755;50.728;7.108;2023-03-31T07:27:41;13.10;51.60
5466;DHT22;2755;50.728;7.108;2023-03-31T07:30:13;13.00;54.40
5466;DHT22;2755;50.728;7.108;2023-03-31T07:37:41;13.50;49.50
5466;DHT22;2755;50.728;7.108;2023-03-31T07:40:13;13.70;46.30
5466;DHT22;2755;50.728;7.108;2023-03-31T07:42:40;13.70;46.20
5466;DHT22;2755;50.728;7.108;2023-03-31T07:59:43;13.90;47.50
5466;DHT22;2755;50.728;7.108;2023-03-31T08:07:03;14.10;47.30
5466;DHT22;2755;50.728;7.108;2023-03-31T08:43:53;14.40;37.90
5466;DHT22;2755;50.728;7.108;2023-03-31T08:46:20;14.50;37.60
5466;DHT22;2755;50.728;7.108;2023-03-31T08:48:57;14.70;37.50
5466;DHT22;2755;50.728;7.108;2023-03-31T08:51:26;14.90;36.00
5466;DHT22;2755;50.728;7.108;2023-03-31T08:54:00;15.30;37.00
5466;DHT22;2755;50.728;7.108;2023-03-31T08:56:34;15.80;33.90
5466;DHT22;2755;50.728;7.108;2023-03-31T08:59:03;16.50;30.40
5466;DHT22;2755;50.728;7.108;2023-03-31T09:10:25;19.60;13.40
5466;DHT22;2755;50.728;7.108;2023-03-31T09:16:08;19.90;5.50
5466;DHT22;2755;50.728;7.108;2023-03-31T09:18:36;19.40;5.20
5466;DHT22;2755;50.728;7.108;2023-03-31T09:24:31;18.90;6.20
5466;DHT22;2755;50.728;7.108;2023-03-31T09:29:22;18.00;7.50
5466;DHT22;2755;50.728;7.108;2023-03-31T09:36:50;17.20;14.40
5466;DHT22;2755;50.728;7.108;2023-03-31T09:49:26;17.20;11.00
5466;DHT22;2755;50.728;7.108;2023-03-31T09:52:24;17.20;12.70
5466;DHT22;2755;50.728;7.108;2023-03-31T09:54:53;17.10;11.60
5466;DHT22;2755;50.728;7.108;2023-03-31T10:02:36;16.90;11.10
5466;DHT22;2755;50.728;7.108;2023-03-31T10:05:03;16.80;11.80
5466;DHT22;2755;50.728;7.108;2023-03-31T10:07:32;16.80;10.70
5466;DHT22;2755;50.728;7.108;2023-03-31T10:12:27;16.70;11.60
5466;DHT22;2755;50.728;7.108;2023-03-31T10:15:01;16.50;13.10
5466;DHT22;2755;50.728;7.108;2023-03-31T10:20:11;16.40;11.60
5466;DHT22;2755;50.728;7.108;2023-03-31T10:25:23;16.00;11.30
5466;DHT22;2755;50.728;7.108;2023-03-31T10:27:53;15.70;13.20
5466;DHT22;2755;50.728;7.108;2023-03-31T10:30:25;15.40;17.40
5466;DHT22;2755;50.728;7.108;2023-03-31T10:37:47;14.90;20.00
5466;DHT22;2755;50.728;7.108;2023-03-31T10:47:39;14.70;22.50
5466;DHT22;2755;50.728;7.108;2023-03-31T10:50:15;15.10;21.80
5466;DHT22;2755;50.728;7.108;2023-03-31T10:52:46;15.20;25.40
5466;DHT22;2755;50.728;7.108;2023-03-31T10:57:52;15.70;27.10
5466;DHT22;2755;50.728;7.108;2023-03-31T11:00:38;16.70;21.60
5466;DHT22;2755;50.728;7.108;2023-03-31T11:06:06;16.90;17.40
5466;DHT22;2755;50.728;7.108;2023-03-31T11:11:30;16.30;20.50
5466;DHT22;2755;50.728;7.108;2023-03-31T11:17:15;15.80;21.30
5466;DHT22;2755;50.728;7.108;2023-03-31T11:25:30;15.40;22.20
5466;DHT22;2755;50.728;7.108;2023-03-31T11:39:32;16.20;15.80
5466;DHT22;2755;50.728;7.108;2023-03-31T11:42:36;16.40;17.40
5466;DHT22;2755;50.728;7.108;2023-03-31T11:45:24;16.50;15.70
5466;DHT22;2755;50.728;7.108;2023-03-31T11:47:54;16.40;15.70
5466;DHT22;2755;50.728;7.108;2023-03-31T11:50:25;16.30;15.40
5466;DHT22;2755;50.728;7.108;2023-03-31T11:53:02;16.10;15.00
5466;DHT22;2755;50.728;7.108;2023-03-31T11:55:30;16.10;15.10
5466;DHT22;2755;50.728;7.108;2023-03-31T12:08:57;14.00;38.10
5466;DHT22;2755;50.728;7.108;2023-03-31T12:11:01;13.20;41.60
5466;DHT22;2755;50.728;7.108;2023-03-31T12:16:36;12.20;50.00
5466;DHT22;2755;50.728;7.108;2023-03-31T12:23:59;12.50;58.50
5466;DHT22;2755;50.728;7.108;2023-03-31T12:29:06;12.60;53.30
5466;DHT22;2755;50.728;7.108;2023-03-31T12:31:38;12.90;50.70
5466;DHT22;2755;50.728;7.108;2023-03-31T12:34:13;13.20;46.50
5466;DHT22;2755;50.728;7.108;2023-03-31T12:52:54;14.70;37.90
5466;DHT22;2755;50.728;7.108;2023-03-31T13:01:07;15.40;32.10
5466;DHT22;2755;50.728;7.108;2023-03-31T13:06:01;16.00;29.80
5466;DHT22;2755;50.728;7.108;2023-03-31T13:08:53;16.30;27.10
5466;DHT22;2755;50.728;7.108;2023-03-31T13:11:40;16.40;27.20
5466;DHT22;2755;50.728;7.108;2023-03-31T13:14:35;16.30;28.20
5466;DHT22;2755;50.728;7.108;2023-03-31T13:17:23;16.30;29.60
5466;DHT22;2755;50.728;7.108;2023-03-31T13:22:36;16.00;25.80
5466;DHT22;2755;50.728;7.108;2023-03-31T13:35:50;15.60;24.50
5466;DHT22;2755;50.728;7.108;2023-03-31T13:46:46;15.80;19.70
5466;DHT22;2755;50.728;7.108;2023-03-31T13:49:25;15.70;20.60
5466;DHT22;2755;50.728;7.108;2023-03-31T13:51:58;15.80;19.00
5466;DHT22;2755;50.728;7.108;2023-03-31T13:57:34;15.70;20.10
5466;DHT22;2755;50.728;7.108;2023-03-31T14:00:33;15.80;17.60
5466;DHT22;2755;50.728;7.108;2023-03-31T14:03:25;16.10;21.00
5466;DHT22;2755;50.728;7.108;2023-03-31T14:06:04;16.00;20.00
5466;DHT22;2755;50.728;7.108;2023-03-31T14:08:53;15.90;18.20
5466;DHT22;2755;50.728;7.108;2023-03-31T14:16:38;15.70;18.40
5466;DHT22;2755;50.728;7.108;2023-03-31T14:21:57;15.90;18.80
5466;DHT22;2755;50.728;7.108;2023-03-31T14:24:35;15.70;19.60
5466;DHT22;2755;50.728;7.108;2023-03-31T14:27:24;15.60;20.30
5466;DHT22;2755;50.728;7.108;2023-03-31T14:33:15;14.70;32.60
5466;DHT22;2755;50.728;7.108;2023-03-31T14:38:21;13.80;43.50
5466;DHT22;2755;50.728;7.108;2023-03-31T14:40:50;13.50;42.80
5466;DHT22;2755;50.728;7.108;2023-03-31T14:43:30;13.30;46.10
5466;DHT22;2755;50.728;7.108;2023-03-31T14:46:05;13.20;51.60
5466;DHT22;2755;50.728;7.108;2023-03-31T14:48:42;13.20;45.90
5466;DHT22;2755;50.728;7.108;2023-03-31T14:51:10;13.10;46.20
5466;DHT22;2755;50.728;7.108;2023-03-31T14:53:36;13.30;42.60
5466;DHT22;2755;50.728;7.108;2023-03-31T14:56:06;13.30;37.20
5466;DHT22;2755;50.728;7.108;2023-03-31T14:58:44;13.30;33.70
5466;DHT22;2755;50.728;7.108;2023-03-31T15:01:15;13.40;36.70
5466;DHT22;2755;50.728;7.108;2023-03-31T15:06:08;13.80;29.70
5466;DHT22;2755;50.728;7.108;2023-03-31T15:08:35;14.30;34.60
5466;DHT22;2755;50.728;7.108;2023-03-31T15:13:52;14.40;28.70
5466;DHT22;2755;50.728;7.108;2023-03-31T15:18:44;15.00;29.30
5466;DHT22;2755;50.728;7.108;2023-03-31T15:21:20;14.50;26.90
5466;DHT22;2755;50.728;7.108;2023-03-31T15:23:45;14.70;27.20
5466;DHT22;2755;50.728;7.108;2023-03-31T15:26:13;14.40;26.90
5466;DHT22;2755;50.728;7.108;2023-03-31T15:28:50;14.20;24.90
5466;DHT22;2755;50.728;7.108;2023-03-31T15:31:16;14.70;24.70
5466;DHT22;2755;50.728;7.108;2023-03-31T15:33:43;14.90;25.70
5466;DHT22;2755;50.728;7.108;2023-03-31T15:36:11;14.40;22.40
5466;DHT22;2755;50.728;7.108;2023-03-31T15:38:37;14.50;23.30
5466;DHT22;2755;50.728;7.108;2023-03-31T15:41:11;14.60;22.90
5466;DHT22;2755;50.728;7.108;2023-03-31T15:43:46;14.80;23.10
5466;DHT22;2755;50.728;7.108;2023-03-31T15:46:19;14.60;22.20
5466;DHT22;2755;50.728;7.108;2023-03-31T15:48:52;14.90;25.80
5466;DHT22;2755;50.728;7.108;2023-03-31T15:51:27;14.30;23.00
5466;DHT22;2755;50.728;7.108;2023-03-31T15:56:29;14.40;22.90
5466;DHT22;2755;50.728;7.108;2023-03-31T15:59:00;15.70;25.80
5466;DHT22;2755;50.728;7.108;2023-03-31T16:01:33;14.30;23.40
5466;DHT22;2755;50.728;7.108;2023-03-31T16:04:03;14.40;23.80
5466;DHT22;2755;50.728;7.108;2023-03-31T16:09:08;14.20;22.60
5466;DHT22;2755;50.728;7.108;2023-03-31T16:11:39;14.20;23.70
5466;DHT22;2755;50.728;7.108;2023-03-31T16:16:53;14.20;22.30
5466;DHT22;2755;50.728;7.108;2023-03-31T16:19:23;14.20;22.50
5466;DHT22;2755;50.728;7.108;2023-03-31T16:21:51;13.80;24.30
5466;DHT22;2755;50.728;7.108;2023-03-31T16:24:19;14.00;23.10
5466;DHT22;2755;50.728;7.108;2023-03-31T16:29:21;14.20;23.90
5466;DHT22;2755;50.728;7.108;2023-03-31T16:31:47;14.40;21.90
5466;DHT22;2755;50.728;7.108;2023-03-31T16:36:39;13.40;25.30
5466;DHT22;2755;50.728;7.108;2023-03-31T16:39:05;13.90;26.30
5466;DHT22;2755;50.728;7.108;2023-03-31T16:46:24;13.90;24.60
5466;DHT22;2755;50.728;7.108;2023-03-31T16:48:50;14.00;24.60
5466;DHT22;2755;50.728;7.108;2023-03-31T16:53:42;13.80;25.30
5466;DHT22;2755;50.728;7.108;2023-03-31T16:56:09;13.80;27.10
5466;DHT22;2755;50.728;7.108;2023-03-31T16:58:36;14.20;26.00
5466;DHT22;2755;50.728;7.108;2023-03-31T17:01:03;13.50;27.60
5466;DHT22;2755;50.728;7.108;2023-03-31T17:03:30;13.80;28.20
5466;DHT22;2755;50.728;7.108;2023-03-31T17:05:56;13.80;26.40
5466;DHT22;2755;50.728;7.108;2023-03-31T17:08:24;13.90;24.70
5466;DHT22;2755;50.728;7.108;2023-03-31T17:11:10;13.70;26.40
5466;DHT22;2755;50.728;7.108;2023-03-31T17:13:37;13.70;27.70
5466;DHT22;2755;50.728;7.108;2023-03-31T17:18:29;14.30;27.00
5466;DHT22;2755;50.728;7.108;2023-03-31T17:21:02;13.00;25.80
5466;DHT22;2755;50.728;7.108;2023-03-31T17:23:28;13.80;26.10
5466;DHT22;2755;50.728;7.108;2023-03-31T17:25:54;13.80;27.90
5466;DHT22;2755;50.728;7.108;2023-03-31T17:30:46;13.40;26.00
5466;DHT22;2755;50.728;7.108;2023-03-31T17:33:14;13.30;27.10
5466;DHT22;2755;50.728;7.108;2023-03-31T17:35:41;13.30;28.20
5466;DHT22;2755;50.728;7.108;2023-03-31T17:38:07;13.50;28.70
5466;DHT22;2755;50.728;7.108;2023-03-31T17:40:34;13.20;26.10
5466;DHT22;2755;50.728;7.108;2023-03-31T17:43:00;12.80;27.50
5466;DHT22;2755;50.728;7.108;2023-03-31T17:47:54;13.40;27.10
5466;DHT22;2755;50.728;7.108;2023-03-31T17:50:20;13.00;26.00
5466;DHT22;2755;50.728;7.108;2023-03-31T17:52:46;13.00;27.40
5466;DHT22;2755;50.728;7.108;2023-03-31T17:57:39;12.90;26.90
5466;DHT22;2755;50.728;7.108;2023-03-31T18:00:07;13.10;29.10
5466;DHT22;2755;50.728;7.108;2023-03-31T18:02:37;12.60;27.20
5466;DHT22;2755;50.728;7.108;2023-03-31T18:05:04;12.80;26.90
5466;DHT22;2755;50.728;7.108;2023-03-31T18:09:57;12.90;28.00
5466;DHT22;2755;50.728;7.108;2023-03-31T18:14:49;11.90;28.00
5466;DHT22;2755;50.728;7.108;2023-03-31T18:17:15;13.00;27.60
5466;DHT22;2755;50.728;7.108;2023-03-31T18:19:41;12.80;27.60
5466;DHT22;2755;50.728;7.108;2023-03-31T18:22:07;12.60;27.80
5466;DHT22;2755;50.728;7.108;2023-03-31T18:27:00;12.60;29.60
5466;DHT22;2755;50.728;7.108;2023-03-31T18:31:51;12.50;27.50
5466;DHT22;2755;50.728;7.108;2023-03-31T18:34:17;12.70;27.30
5466;DHT22;2755;50.728;7.108;2023-03-31T18:36:43;13.10;29.90
5466;DHT22;2755;50.728;7.108;2023-03-31T18:39:09;12.60;27.40
5466;DHT22;2755;50.728;7.108;2023-03-31T18:41:35;12.80;27.50
5466;DHT22;2755;50.728;7.108;2023-03-31T18:44:00;12.50;27.60
5466;DHT22;2755;50.728;7.108;2023-03-31T18:46:26;12.80;29.80
5466;DHT22;2755;50.728;7.108;2023-03-31T18:48:51;11.80;26.50
5466;DHT22;2755;50.728;7.108;2023-03-31T18:51:17;12.50;27.10
5466;DHT22;2755;50.728;7.108;2023-03-31T18:53:43;12.80;27.40
5466;DHT22;2755;50.728;7.108;2023-03-31T18:58:35;12.80;27.20
5466;DHT22;2755;50.728;7.108;2023-03-31T19:03:27;12.60;27.50
5466;DHT22;2755;50.728;7.108;2023-03-31T19:06:05;12.50;29.60
5466;DHT22;2755;50.728;7.108;2023-03-31T19:08:31;12.50;27.90
5466;DHT22;2755;50.728;7.108;2023-03-31T19:11:05;12.40;27.40
5466;DHT22;2755;50.728;7.108;2023-03-31T19:13:30;12.20;29.80
5466;DHT22;2755;50.728;7.108;2023-03-31T19:15:56;12.30;28.30
5466;DHT22;2755;50.728;7.108;2023-03-31T19:18:22;12.10;31.00
5466;DHT22;2755;50.728;7.108;2023-03-31T19:20:47;12.10;29.20
5466;DHT22;2755;50.728;7.108;2023-03-31T19:23:13;12.40;29.70
5466;DHT22;2755;50.728;7.108;2023-03-31T19:25:38;12.00;32.40
5466;DHT22;2755;50.728;7.108;2023-03-31T19:28:04;12.70;31.60
5466;DHT22;2755;50.728;7.108;2023-03-31T19:30:30;12.60;33.50
5466;DHT22;2755;50.728;7.108;2023-03-31T19:32:55;12.60;32.40
5466;DHT22;2755;50.728;7.108;2023-03-31T19:35:21;12.20;32.00
5466;DHT22;2755;50.728;7.108;2023-03-31T19:37:47;12.20;34.50
5466;DHT22;2755;50.728;7.108;2023-03-31T19:42:40;12.10;32.20
5466;DHT22;2755;50.728;7.108;2023-03-31T19:45:07;12.00;31.80
5466;DHT22;2755;50.728;7.108;2023-03-31T19:49:58;12.00;36.10
5466;DHT22;2755;50.728;7.108;2023-03-31T19:52:24;12.00;33.50
5466;DHT22;2755;50.728;7.108;2023-03-31T19:54:49;12.20;34.20
5466;DHT22;2755;50.728;7.108;2023-03-31T20:02:08;11.50;35.30
5466;DHT22;2755;50.728;7.108;2023-03-31T20:07:04;11.60;36.50
5466;DHT22;2755;50.728;7.108;2023-03-31T20:09:29;12.00;38.90
5466;DHT22;2755;50.728;7.108;2023-03-31T20:11:55;12.00;36.40
5466;DHT22;2755;50.728;7.108;2023-03-31T20:14:21;11.70;38.20
5466;DHT22;2755;50.728;7.108;2023-03-31T20:16:47;12.00;39.30
5466;DHT22;2755;50.728;7.108;2023-03-31T20:19:14;11.80;37.50
5466;DHT22;2755;50.728;7.108;2023-03-31T20:21:41;11.60;40.40
5466;DHT22;2755;50.728;7.108;2023-03-31T20:24:14;12.00;40.60
5466;DHT22;2755;50.728;7.108;2023-03-31T20:26:40;11.30;43.40
5466;DHT22;2755;50.728;7.108;2023-03-31T20:29:05;11.70;40.90
5466;DHT22;2755;50.728;7.108;2023-03-31T20:31:33;11.50;41.60
5466;DHT22;2755;50.728;7.108;2023-03-31T20:34:01;11.70;43.90
5466;DHT22;2755;50.728;7.108;2023-03-31T20:36:28;11.20;43.10
5466;DHT22;2755;50.728;7.108;2023-03-31T20:38:56;11.70;41.00
5466;DHT22;2755;50.728;7.108;2023-03-31T20:41:25;11.60;41.60
5466;DHT22;2755;50.728;7.108;2023-03-31T20:43:51;11.00;40.90
5466;DHT22;2755;50.728;7.108;2023-03-31T20:46:17;11.50;43.90
5466;DHT22;2755;50.728;7.108;2023-03-31T20:48:44;11.60;40.50
5466;DHT22;2755;50.728;7.108;2023-03-31T20:51:14;11.60;40.20
5466;DHT22;2755;50.728;7.108;2023-03-31T20:53:42;11.70;41.80
5466;DHT22;2755;50.728;7.108;2023-03-31T20:56:09;11.70;40.60
5466;DHT22;2755;50.728;7.108;2023-03-31T20:58:35;11.50;41.60
5466;DHT22;2755;50.728;7.108;2023-03-31T21:01:01;11.90;41.90
5466;DHT22;2755;50.728;7.108;2023-03-31T21:03:27;11.70;41.40
5466;DHT22;2755;50.728;7.108;2023-03-31T21:05:52;11.60;41.60
5466;DHT22;2755;50.728;7.108;2023-03-31T21:08:18;12.20;45.40
5466;DHT22;2755;50.728;7.108;2023-03-31T21:10:44;11.80;44.20
5466;DHT22;2755;50.728;7.108;2023-03-31T21:13:12;11.60;40.60
5466;DHT22;2755;50.728;7.108;2023-03-31T21:18:06;12.00;41.20
5466;DHT22;2755;50.728;7.108;2023-03-31T21:20:33;12.00;40.80
5466;DHT22;2755;50.728;7.108;2023-03-31T21:22:59;11.60;41.40
5466;DHT22;2755;50.728;7.108;2023-03-31T21:25:25;11.70;40.40
5466;DHT22;2755;50.728;7.108;2023-03-31T21:27:51;11.80;41.80
5466;DHT22;2755;50.728;7.108;2023-03-31T21:30:17;10.60;40.70
5466;DHT22;2755;50.728;7.108;2023-03-31T21:32:43;12.10;42.20
5466;DHT22;2755;50.728;7.108;2023-03-31T21:35:09;11.60;43.90
5466;DHT22;2755;50.728;7.108;2023-03-31T21:40:04;12.00;43.00
5466;DHT22;2755;50.728;7.108;2023-03-31T21:42:32;10.70;43.30
5466;DHT22;2755;50.728;7.108;2023-03-31T21:44:58;11.60;44.20
5466;DHT22;2755;50.728;7.108;2023-03-31T21:47:24;11.60;41.10
5466;DHT22;2755;50.728;7.108;2023-03-31T21:49:50;11.80;44.80
5466;DHT22;2755;50.728;7.108;2023-03-31T21:54:43;12.00;43.90
5466;DHT22;2755;50.728;7.108;2023-03-31T22:04:27;11.40;43.00
5466;DHT22;2755;50.728;7.108;2023-03-31T22:06:53;12.30;45.60
5466;DHT22;2755;50.728;7.108;2023-03-31T22:09:19;11.80;44.00
5466;DHT22;2755;50.728;7.108;2023-03-31T22:11:44;10.90;42.90
5466;DHT22;2755;50.728;7.108;2023-03-31T22:14:10;11.30;43.70
5466;DHT22;2755;50.728;7.108;2023-03-31T22:16:36;11.80;43.10
5466;DHT22;2755;50.728;7.108;2023-03-31T22:19:02;11.30;43.10
5466;DHT22;2755;50.728;7.108;2023-03-31T22:21:28;10.90;44.20
5466;DHT22;2755;50.728;7.108;2023-03-31T22:23:57;11.00;41.50
5466;DHT22;2755;50.728;7.108;2023-03-31T22:26:25;11.50;45.50
5466;DHT22;2755;50.728;7.108;2023-03-31T22:28:51;11.60;45.80
5466;DHT22;2755;50.728;7.108;2023-03-31T22:31:17;10.60;42.10
5466;DHT22;2755;50.728;7.108;2023-03-31T22:33:42;11.40;46.00
5466;DHT22;2755;50.728;7.108;2023-03-31T22:36:08;11.30;43.30
5466;DHT22;2755;50.728;7.108;2023-03-31T22:38:34;11.40;43.30
5466;DHT22;2755;50.728;7.108;2023-03-31T22:40:59;11.30;43.20
5466;DHT22;2755;50.728;7.108;2023-03-31T22:43:26;11.10;46.00
5466;DHT22;2755;50.728;7.108;2023-03-31T22:45:51;11.10;43.80
5466;DHT22;2755;50.728;7.108;2023-03-31T22:48:17;11.60;43.70
5466;DHT22;2755;50.728;7.108;2023-03-31T22:50:43;11.20;45.00
5466;DHT22;2755;50.728;7.108;2023-03-31T22:53:10;11.50;45.00
5466;DHT22;2755;50.728;7.108;2023-03-31T22:55:45;11.50;44.70
5466;DHT22;2755;50.728;7.108;2023-03-31T22:58:11;11.40;41.70
5466;DHT22;2755;50.728;7.108;2023-03-31T23:00:37;11.10;42.80
5466;DHT22;2755;50.728;7.108;2023-03-31T23:03:03;11.10;42.80
5466;DHT22;2755;50.728;7.108;2023-03-31T23:05:30;11.30;42.10
5466;DHT22;2755;50.728;7.108;2023-03-31T23:07:56;11.00;40.30
5466;DHT22;2755;50.728;7.108;2023-03-31T23:10:22;11.90;43.50
5466;DHT22;2755;50.728;7.108;2023-03-31T23:12:47;10.60;40.00
5466;DHT22;2755;50.728;7.108;2023-03-31T23:15:13;11.10;43.00
5466;DHT22;2755;50.728;7.108;2023-03-31T23:17:38;11.40;42.90
5466;DHT22;2755;50.728;7.108;2023-03-31T23:20:05;11.30;44.20
5466;DHT22;2755;50.728;7.108;2023-03-31T23:22:32;11.30;41.30
5466;DHT22;2755;50.728;7.108;2023-03-31T23:24:58;11.40;44.30